Time;durP1;ratioP1;P1;durP2;ratioP2;P2;SDS_P1;SDS_P2;PMS_P1;PMS_P2;Temp;Humidity;BMP_temperature;BMP_pressure;BME280_temperature;BME280_humidity;BME280_pressure;Samples;Min_cycle;Max_cycle;Signal;HPM_P1;HPM_P2
2022/01/11 00:00:01;;;;;;;15.98;6.55;;;29.00;99.90;;;;;;5088713;28;20483;-85
2022/01/11 00:02:29;;;;;;;12.70;6.40;;;29.10;99.90;;;;;;5088487;28;20392;-85
2022/01/11 00:04:56;;;;;;;13.38;6.80;;;29.40;99.90;;;;;;5087841;28;20463;-86
2022/01/11 00:07:23;;;;;;;17.13;7.13;;;29.80;99.80;;;;;;5083980;28;20392;-86
2022/01/11 00:09:53;;;;;;;18.10;6.90;;;30.10;98.10;;;;;;5068570;28;20385;-87
2022/01/11 00:12:20;;;;;;;14.10;6.40;;;30.00;98.00;;;;;;5079887;28;20828;-87
2022/01/11 00:14:47;;;;;;;17.45;7.57;;;29.90;98.60;;;;;;5088763;28;20364;-87
2022/01/11 00:17:14;;;;;;;17.40;7.30;;;30.10;96.70;;;;;;5084622;28;20392;-86
2022/01/11 00:19:41;;;;;;;12.00;6.40;;;30.20;96.40;;;;;;5068277;28;20381;-88
2022/01/11 00:22:16;;;;;;;14.60;6.40;;;30.20;96.10;;;;;;5077721;28;20392;-87
2022/01/11 00:24:43;;;;;;;12.07;6.50;;;30.10;97.00;;;;;;5088437;28;20870;-89
2022/01/11 00:27:11;;;;;;;13.07;6.60;;;30.40;96.60;;;;;;5088379;28;20368;-85
2022/01/11 00:29:41;;;;;;;15.02;6.13;;;30.80;96.00;;;;;;5085930;28;20384;-87
2022/01/11 00:32:14;;;;;;;12.07;6.10;;;31.10;94.70;;;;;;5075658;28;20452;-84
2022/01/11 00:34:52;;;;;;;13.35;5.93;;;31.10;94.80;;;;;;5068761;28;20366;-86
2022/01/11 00:37:20;;;;;;;13.27;5.90;;;31.40;93.60;;;;;;5087903;28;20885;-83
2022/01/11 00:39:50;;;;;;;11.82;5.20;;;31.50;91.70;;;;;;5088047;28;20391;-87
2022/01/11 00:42:19;;;;;;;14.80;5.53;;;31.70;90.90;;;;;;5088293;28;20381;-89
2022/01/11 00:44:46;;;;;;;13.60;5.63;;;31.60;91.60;;;;;;5088166;28;20868;-87
2022/01/11 00:47:13;;;;;;;10.32;4.60;;;31.40;91.70;;;;;;5085460;28;20381;-85
2022/01/11 00:49:40;;;;;;;12.63;5.25;;;31.60;90.20;;;;;;5074375;28;20869;-84
2022/01/11 00:52:08;;;;;;;10.80;5.18;;;31.20;89.80;;;;;;5067379;28;20413;-85
2022/01/11 00:54:35;;;;;;;13.00;5.15;;;30.60;91.50;;;;;;5067480;28;20370;-86
2022/01/11 00:57:03;;;;;;;12.70;5.40;;;30.50;91.90;;;;;;5067613;28;20378;-86
2022/01/11 00:59:30;;;;;;;13.07;5.28;;;30.30;92.80;;;;;;5067443;28;20427;-86
2022/01/11 01:02:00;;;;;;;11.25;4.70;;;30.00;93.10;;;;;;5075320;28;20479;-86
2022/01/11 01:04:28;;;;;;;10.98;4.40;;;29.70;93.50;;;;;;5084137;28;20756;-82
2022/01/11 01:06:55;;;;;;;10.10;4.40;;;29.50;93.50;;;;;;5077880;28;20384;-85
2022/01/11 01:09:24;;;;;;;12.43;4.68;;;29.20;94.30;;;;;;5087383;28;20368;-86
2022/01/11 01:11:51;;;;;;;10.43;4.67;;;29.30;93.30;;;;;;5087270;28;20391;-84
2022/01/11 01:14:21;;;;;;;12.65;4.97;;;29.30;93.40;;;;;;5087468;28;20376;-84
2022/01/11 01:16:48;;;;;;;10.90;5.13;;;29.20;94.00;;;;;;5086940;28;20375;-81
2022/01/11 01:19:15;;;;;;;11.52;4.70;;;29.20;94.00;;;;;;5087256;28;21078;-83
2022/01/11 01:21:42;;;;;;;11.03;4.63;;;29.10;94.60;;;;;;5087312;28;20407;-86
2022/01/11 01:24:11;;;;;;;15.30;4.90;;;29.10;94.10;;;;;;5087175;28;20368;-86
2022/01/11 01:26:38;;;;;;;12.07;4.75;;;29.10;94.80;;;;;;5087138;28;20433;-85
2022/01/11 01:29:05;;;;;;;11.43;5.38;;;29.20;94.60;;;;;;5086758;28;20377;-85
2022/01/11 01:31:33;;;;;;;15.73;6.32;;;29.50;95.10;;;;;;5086861;28;20376;-82
2022/01/11 01:34:00;;;;;;;13.35;5.50;;;29.90;94.30;;;;;;5086742;28;20388;-85
2022/01/11 01:36:27;;;;;;;13.27;5.77;;;30.10;92.50;;;;;;5087203;28;20399;-86
2022/01/11 01:38:54;;;;;;;14.55;6.78;;;30.00;93.00;;;;;;5086751;28;21024;-86
2022/01/11 01:41:22;;;;;;;11.23;5.38;;;29.90;92.60;;;;;;5086393;28;20902;-85
2022/01/11 01:43:53;;;;;;;9.77;4.47;;;30.00;92.60;;;;;;5086474;28;20387;-84
2022/01/11 01:46:22;;;;;;;12.80;3.97;;;30.60;92.50;;;;;;5086750;28;20388;-85
2022/01/11 01:48:49;;;;;;;10.10;4.10;;;31.30;90.00;;;;;;5086343;28;20376;-88
2022/01/11 01:51:17;;;;;;;10.40;4.13;;;31.70;90.30;;;;;;5086389;28;20903;-85
2022/01/11 01:53:48;;;;;;;9.73;4.00;;;31.80;86.60;;;;;;5086697;28;20374;-85
2022/01/11 01:56:16;;;;;;;9.18;4.20;;;32.00;89.10;;;;;;5086368;28;20384;-84
2022/01/11 01:58:44;;;;;;;10.38;4.10;;;32.10;88.30;;;;;;5085058;28;20385;-84
2022/01/11 02:01:13;;;;;;;8.38;4.00;;;32.10;83.70;;;;;;5086477;28;20396;-80
2022/01/11 02:03:43;;;;;;;8.40;3.83;;;32.00;85.20;;;;;;5086625;28;20384;-85
2022/01/11 02:06:18;;;;;;;9.90;4.15;;;32.40;80.30;;;;;;5086617;28;20463;-84
2022/01/11 02:08:49;;;;;;;13.40;4.30;;;32.00;83.50;;;;;;5086713;28;20871;-83
2022/01/11 02:11:22;;;;;;;11.35;4.20;;;31.70;86.00;;;;;;5086268;28;20455;-86
2022/01/11 02:13:50;;;;;;;10.85;4.05;;;31.70;86.50;;;;;;5086322;28;20414;-89
2022/01/11 02:16:20;;;;;;;9.48;3.60;;;31.90;85.30;;;;;;5086673;28;20419;-84
2022/01/11 02:18:48;;;;;;;10.68;3.40;;;31.70;86.10;;;;;;5086463;28;20452;-85
2022/01/11 02:21:15;;;;;;;10.40;3.70;;;31.60;85.70;;;;;;5086130;28;20508;-83
2022/01/11 02:23:42;;;;;;;10.75;3.25;;;31.50;84.20;;;;;;5085679;28;20535;-84
2022/01/11 02:26:09;;;;;;;11.93;3.58;;;31.40;84.50;;;;;;5084179;28;20872;-85
2022/01/11 02:28:37;;;;;;;12.15;3.60;;;31.10;85.60;;;;;;5085908;28;20378;-85
2022/01/11 02:31:07;;;;;;;10.10;3.47;;;30.90;86.80;;;;;;5066138;28;20470;-84
2022/01/11 02:33:37;;;;;;;10.97;3.17;;;30.80;87.60;;;;;;5085606;28;20375;-84
2022/01/11 02:36:07;;;;;;;10.00;3.40;;;30.70;87.90;;;;;;5086357;28;20446;-84
2022/01/11 02:38:35;;;;;;;8.15;3.10;;;30.70;88.10;;;;;;5086237;28;20401;-83
2022/01/11 02:41:02;;;;;;;11.68;3.35;;;30.60;89.80;;;;;;5086150;28;20396;-81
2022/01/11 02:43:30;;;;;;;15.60;3.60;;;30.70;90.30;;;;;;5085267;28;20400;-79
2022/01/11 02:46:01;;;;;;;11.37;3.27;;;31.00;88.10;;;;;;5065936;28;21045;-78
2022/01/11 02:48:30;;;;;;;10.77;3.30;;;31.10;88.30;;;;;;5065787;28;20432;-82
2022/01/11 02:50:57;;;;;;;14.03;3.60;;;31.30;88.20;;;;;;5065646;28;20787;-86
2022/01/11 02:53:24;;;;;;;13.82;3.40;;;31.30;87.60;;;;;;5065832;28;20387;-85
2022/01/11 02:55:51;;;;;;;11.05;3.30;;;31.50;85.40;;;;;;5065829;28;20721;-86
2022/01/11 02:58:18;;;;;;;11.50;3.45;;;31.60;84.40;;;;;;5065689;28;20389;-84
2022/01/11 03:00:45;;;;;;;9.52;3.30;;;31.60;85.60;;;;;;5065605;28;20441;-85
2022/01/11 03:03:20;;;;;;;12.80;3.40;;;31.60;84.80;;;;;;5065753;28;20363;-82
2022/01/11 03:05:50;;;;;;;10.68;3.53;;;31.80;82.90;;;;;;5065693;28;20370;-84
2022/01/11 03:08:18;;;;;;;10.02;3.60;;;31.70;81.90;;;;;;5065608;28;20377;-86
2022/01/11 03:10:47;;;;;;;11.05;3.40;;;31.70;82.10;;;;;;5067240;28;20455;-83
2022/01/11 03:13:16;;;;;;;11.10;3.47;;;31.50;85.80;;;;;;5069442;28;20591;-81
2022/01/11 03:15:44;;;;;;;13.75;3.53;;;30.90;88.40;;;;;;5069326;28;20457;-84
2022/01/11 03:18:11;;;;;;;11.95;3.10;;;30.80;89.20;;;;;;5069281;28;20838;-84
2022/01/11 03:20:39;;;;;;;10.02;3.53;;;30.60;90.10;;;;;;5060832;28;20398;-84
2022/01/11 03:23:07;;;;;;;10.63;3.45;;;30.40;90.60;;;;;;5063002;28;20484;-78
2022/01/11 03:25:35;;;;;;;13.15;3.33;;;30.30;91.60;;;;;;5068987;28;20370;-80
2022/01/11 03:28:04;;;;;;;10.87;3.30;;;30.20;92.20;;;;;;5064186;28;20889;-85
2022/01/11 03:30:32;;;;;;;10.60;3.30;;;30.10;92.70;;;;;;5049353;28;20375;-85
2022/01/11 03:32:59;;;;;;;10.30;3.20;;;30.10;93.10;;;;;;5050333;28;20392;-81
2022/01/11 03:35:27;;;;;;;12.70;3.30;;;30.10;93.20;;;;;;5058575;28;20382;-82
2022/01/11 03:37:54;;;;;;;12.52;3.30;;;30.20;93.30;;;;;;5084681;28;20493;-86
2022/01/11 03:40:24;;;;;;;9.93;3.10;;;30.40;93.80;;;;;;5089350;28;20411;-85
2022/01/11 03:42:51;;;;;;;10.85;3.28;;;30.50;93.40;;;;;;5089193;28;20388;-85
2022/01/11 03:45:23;;;;;;;9.88;3.22;;;30.80;93.00;;;;;;5089362;28;20372;-86
2022/01/11 03:47:52;;;;;;;9.90;3.22;;;31.00;91.90;;;;;;5088719;28;20380;-85
2022/01/11 03:50:20;;;;;;;11.68;3.55;;;31.30;90.80;;;;;;5087675;28;20368;-83
2022/01/11 03:52:51;;;;;;;10.88;3.30;;;31.40;90.70;;;;;;5089141;28;20384;-84
2022/01/11 03:55:32;;;;;;;11.07;3.40;;;31.30;90.80;;;;;;5089129;28;20410;-84
2022/01/11 03:57:59;;;;;;;11.90;3.40;;;31.10;91.10;;;;;;5089064;28;20382;-83
2022/01/11 04:00:26;;;;;;;11.30;3.40;;;30.80;91.50;;;;;;5088925;28;20399;-84
2022/01/11 04:02:53;;;;;;;13.55;3.55;;;30.70;91.50;;;;;;5088816;28;20407;-83
2022/01/11 04:05:20;;;;;;;12.68;3.50;;;30.80;91.60;;;;;;5089029;28;20379;-84
2022/01/11 04:07:46;;;;;;;12.50;3.47;;;30.90;91.10;;;;;;5088776;28;20381;-83
2022/01/11 04:10:14;;;;;;;9.77;3.10;;;30.90;90.90;;;;;;5088876;28;20803;-84
2022/01/11 04:12:41;;;;;;;12.43;3.00;;;30.90;90.70;;;;;;5088542;28;20426;-84
2022/01/11 04:15:08;;;;;;;11.98;3.10;;;31.00;90.70;;;;;;5088707;28;20386;-83
2022/01/11 04:17:35;;;;;;;10.10;3.23;;;31.20;90.60;;;;;;5088101;28;20880;-84
2022/01/11 04:20:02;;;;;;;11.88;3.60;;;31.40;90.00;;;;;;5088507;28;20431;-84
2022/01/11 04:22:29;;;;;;;9.88;3.10;;;31.70;89.10;;;;;;5087822;28;20384;-84
2022/01/11 04:24:56;;;;;;;9.53;3.20;;;32.10;86.30;;;;;;5088596;28;20380;-84
2022/01/11 04:27:23;;;;;;;11.40;3.35;;;32.50;86.40;;;;;;5088573;28;20388;-84
2022/01/11 04:29:50;;;;;;;10.82;3.22;;;32.80;83.70;;;;;;5088456;28;20372;-85
2022/01/11 04:32:17;;;;;;;10.82;3.10;;;32.90;82.10;;;;;;5088451;28;20840;-86
2022/01/11 04:34:44;;;;;;;11.55;3.47;;;32.90;80.90;;;;;;5092027;28;20384;-85
2022/01/11 04:37:11;;;;;;;11.95;3.17;;;32.90;80.20;;;;;;5087947;28;20396;-86
2022/01/11 04:39:38;;;;;;;13.70;3.20;;;32.60;82.70;;;;;;5088530;28;20376;-85
2022/01/11 04:42:05;;;;;;;12.93;3.20;;;32.40;82.60;;;;;;5087948;28;20407;-85
2022/01/11 04:44:32;;;;;;;10.43;3.10;;;32.20;82.10;;;;;;5088314;28;20460;-85
2022/01/11 04:46:59;;;;;;;11.77;3.30;;;31.90;84.00;;;;;;5088054;28;20462;-84
2022/01/11 04:49:26;;;;;;;14.75;3.55;;;31.50;83.90;;;;;;5088096;28;20452;-85
2022/01/11 04:51:54;;;;;;;11.60;3.30;;;31.00;86.30;;;;;;5087971;28;20864;-84
2022/01/11 04:54:21;;;;;;;11.77;3.25;;;30.70;87.10;;;;;;5087957;28;20387;-84
2022/01/11 04:56:48;;;;;;;10.52;3.70;;;30.50;88.20;;;;;;5087929;28;20376;-84
2022/01/11 04:59:15;;;;;;;10.70;3.77;;;30.10;90.20;;;;;;5087837;28;20374;-84
2022/01/11 05:01:42;;;;;;;10.90;3.70;;;29.80;91.00;;;;;;5087765;28;20429;-84
2022/01/11 05:04:09;;;;;;;13.63;4.10;;;29.60;91.80;;;;;;5088080;28;20740;-84
2022/01/11 05:06:36;;;;;;;10.82;3.58;;;29.50;92.70;;;;;;5088084;28;20384;-85
2022/01/11 05:09:03;;;;;;;14.15;3.45;;;29.40;93.10;;;;;;5087742;28;20381;-84
2022/01/11 05:11:31;;;;;;;13.70;3.80;;;29.40;93.20;;;;;;5087561;28;20388;-85
2022/01/11 05:13:58;;;;;;;13.40;3.47;;;29.30;93.30;;;;;;5087653;28;20380;-85
2022/01/11 05:16:25;;;;;;;12.98;3.53;;;29.30;93.90;;;;;;5087691;28;20372;-84
2022/01/11 05:18:51;;;;;;;11.32;3.40;;;29.30;94.00;;;;;;5087492;28;21000;-85
2022/01/11 05:21:19;;;;;;;12.98;3.50;;;29.30;94.10;;;;;;5087776;28;20542;-84
2022/01/11 05:23:46;;;;;;;13.02;3.38;;;29.30;94.00;;;;;;5087410;28;20373;-85
2022/01/11 05:26:13;;;;;;;12.05;3.50;;;29.20;94.30;;;;;;5087414;28;20836;-84
2022/01/11 05:28:40;;;;;;;10.93;3.15;;;29.10;94.80;;;;;;5087217;28;20372;-84
2022/01/11 05:31:07;;;;;;;15.57;3.50;;;29.00;95.00;;;;;;5087277;28;20909;-84
2022/01/11 05:33:34;;;;;;;11.63;3.15;;;29.00;95.90;;;;;;5086332;28;20432;-81
2022/01/11 05:36:01;;;;;;;11.65;3.30;;;28.90;95.70;;;;;;5087129;28;20383;-85
2022/01/11 05:38:28;;;;;;;12.82;3.42;;;29.00;95.80;;;;;;5086861;28;20387;-82
2022/01/11 05:40:56;;;;;;;12.95;3.47;;;29.00;95.40;;;;;;5086953;28;20515;-83
2022/01/11 05:43:23;;;;;;;11.00;3.17;;;29.00;95.70;;;;;;5087170;28;20772;-84
2022/01/11 05:45:50;;;;;;;11.90;3.30;;;29.00;96.00;;;;;;5087055;28;20380;-84
2022/01/11 05:48:17;;;;;;;9.93;3.03;;;29.10;95.70;;;;;;5087166;28;20407;-83
2022/01/11 05:50:44;;;;;;;13.00;3.22;;;29.10;95.70;;;;;;5086952;28;20383;-83
2022/01/11 05:53:12;;;;;;;12.73;3.42;;;29.00;95.50;;;;;;5086999;28;20953;-84
2022/01/11 05:55:39;;;;;;;11.73;3.28;;;29.00;95.10;;;;;;5087026;28;20741;-83
2022/01/11 05:58:06;;;;;;;13.50;3.30;;;28.90;95.30;;;;;;5086847;28;20428;-83
2022/01/11 06:00:33;;;;;;;14.38;3.47;;;28.90;95.40;;;;;;5088354;28;20481;-81
2022/01/11 06:03:01;;;;;;;12.60;3.63;;;28.80;95.60;;;;;;5086898;28;20384;-83
2022/01/11 06:05:30;;;;;;;11.45;3.33;;;28.60;96.00;;;;;;5086726;28;20381;-82
2022/01/11 06:07:57;;;;;;;15.32;3.55;;;28.50;96.40;;;;;;5086750;28;20456;-85
2022/01/11 06:10:24;;;;;;;11.00;3.30;;;28.40;96.60;;;;;;5087023;28;20716;-86
2022/01/11 06:12:51;;;;;;;12.35;3.33;;;28.30;97.00;;;;;;5086241;28;20395;-86
2022/01/11 06:15:18;;;;;;;10.53;3.03;;;28.20;97.50;;;;;;5086124;28;20395;-85
2022/01/11 06:17:45;;;;;;;13.23;3.40;;;28.10;97.60;;;;;;5086345;28;20887;-88
2022/01/11 06:20:13;;;;;;;14.48;3.30;;;28.10;97.70;;;;;;5085706;28;20876;-86
2022/01/11 06:22:41;;;;;;;12.75;3.35;;;28.00;97.80;;;;;;5086604;28;20376;-82
2022/01/11 06:25:09;;;;;;;10.98;3.15;;;28.00;98.00;;;;;;5086157;28;20384;-83
2022/01/11 06:27:40;;;;;;;13.98;3.40;;;28.00;97.90;;;;;;5086067;28;20873;-84
2022/01/11 06:30:11;;;;;;;11.43;2.75;;;28.10;97.90;;;;;;5086338;28;20930;-87
2022/01/11 06:32:38;;;;;;;11.77;2.92;;;28.10;97.80;;;;;;5085778;28;20387;-84
2022/01/11 06:35:06;;;;;;;10.27;3.10;;;28.10;97.70;;;;;;5082858;28;20467;-88
2022/01/11 06:37:35;;;;;;;13.75;3.47;;;28.00;98.00;;;;;;5085976;28;20392;-88
2022/01/11 06:40:05;;;;;;;13.48;3.28;;;28.10;98.30;;;;;;5085596;28;20388;-87
2022/01/11 06:42:33;;;;;;;9.90;3.20;;;28.00;98.50;;;;;;5086172;28;20392;-86
2022/01/11 06:45:00;;;;;;;12.05;3.22;;;28.10;98.60;;;;;;5086870;28;20868;-83
2022/01/11 06:47:27;;;;;;;13.75;3.40;;;28.10;98.40;;;;;;5089808;28;20384;-83
2022/01/11 06:49:54;;;;;;;11.63;3.25;;;28.30;98.20;;;;;;5089815;28;20380;-85
2022/01/11 06:52:21;;;;;;;10.85;2.97;;;28.60;98.60;;;;;;5090085;28;20380;-83
2022/01/11 06:54:48;;;;;;;9.85;2.72;;;29.50;96.30;;;;;;5090367;28;20705;-96
2022/01/11 06:57:15;;;;;;;10.73;3.13;;;30.40;94.70;;;;;;5094901;28;20387;-86
2022/01/11 06:59:42;;;;;;;10.40;3.40;;;31.40;91.70;;;;;;5098407;28;20417;-86
2022/01/11 07:02:09;;;;;;;9.33;3.00;;;31.60;90.00;;;;;;5095393;28;20435;-83
2022/01/11 07:04:37;;;;;;;9.68;3.03;;;31.70;86.40;;;;;;5088807;28;20818;-83
2022/01/11 07:07:06;;;;;;;8.50;2.70;;;31.60;87.30;;;;;;5088848;28;20601;-85
2022/01/11 07:09:34;;;;;;;12.43;3.30;;;31.20;86.90;;;;;;5089982;28;20376;-83
2022/01/11 07:12:01;;;;;;;8.65;2.72;;;30.90;88.00;;;;;;5089283;28;20482;-83
2022/01/11 07:14:28;;;;;;;9.70;3.00;;;30.50;89.50;;;;;;5089177;28;20450;-83
2022/01/11 07:16:55;;;;;;;10.25;3.10;;;30.20;90.10;;;;;;5089222;28;20416;-83
2022/01/11 07:19:23;;;;;;;8.57;3.05;;;30.00;90.60;;;;;;5089009;28;20384;-83
2022/01/11 07:21:50;;;;;;;11.23;3.10;;;29.70;91.60;;;;;;5088767;28;20483;-85
2022/01/11 07:24:18;;;;;;;10.75;3.25;;;29.20;92.60;;;;;;5089734;28;20844;-89
2022/01/11 07:26:45;;;;;;;12.05;3.10;;;29.00;94.00;;;;;;5089229;28;20384;-83
2022/01/11 07:29:12;;;;;;;12.02;3.13;;;29.00;94.60;;;;;;5089198;28;20438;-85
2022/01/11 07:31:40;;;;;;;12.88;3.33;;;28.80;94.90;;;;;;5088637;28;20376;-84
2022/01/11 07:34:08;;;;;;;11.88;3.30;;;28.80;95.20;;;;;;5088477;28;20459;-86
2022/01/11 07:36:36;;;;;;;11.60;3.17;;;28.70;95.00;;;;;;5088533;28;20455;-85
2022/01/11 07:39:05;;;;;;;9.02;3.00;;;28.70;95.10;;;;;;5085847;28;20405;-86
2022/01/11 07:41:32;;;;;;;11.10;3.23;;;28.60;95.60;;;;;;5069122;28;20439;-86
2022/01/11 07:43:59;;;;;;;10.68;3.30;;;28.60;95.40;;;;;;5076047;28;20385;-83
2022/01/11 07:46:26;;;;;;;11.75;3.30;;;28.60;95.60;;;;;;5069732;28;20464;-83
2022/01/11 07:48:53;;;;;;;11.85;3.40;;;28.50;95.80;;;;;;5068805;28;20874;-83
2022/01/11 07:51:20;;;;;;;13.40;3.35;;;28.30;96.20;;;;;;5067864;28;20418;-82
2022/01/11 07:53:47;;;;;;;12.05;3.38;;;28.20;96.90;;;;;;5068831;28;20367;-81
2022/01/11 07:56:14;;;;;;;12.38;3.30;;;28.20;97.50;;;;;;5067924;28;20397;-82
2022/01/11 07:58:41;;;;;;;16.40;3.55;;;28.00;97.50;;;;;;5068409;28;20374;-82
2022/01/11 08:01:08;;;;;;;12.87;3.40;;;27.90;98.10;;;;;;5068312;28;20409;-83
2022/01/11 08:03:35;;;;;;;13.77;3.40;;;27.90;98.60;;;;;;5068468;28;20378;-83
2022/01/11 08:06:02;;;;;;;15.63;3.40;;;27.80;98.70;;;;;;5068467;28;20410;-82
2022/01/11 08:08:29;;;;;;;13.57;3.45;;;27.70;99.20;;;;;;5061023;28;20463;-83
2022/01/11 08:10:56;;;;;;;13.27;3.17;;;27.70;99.40;;;;;;5066618;28;20390;-83
2022/01/11 08:13:24;;;;;;;11.15;2.83;;;27.90;99.90;;;;;;5067537;28;20380;-84
2022/01/11 08:15:51;;;;;;;14.63;3.60;;;28.20;99.90;;;;;;5067850;28;20878;-89
2022/01/11 08:18:18;;;;;;;12.15;3.28;;;28.60;98.20;;;;;;5043239;28;20838;-83
2022/01/11 08:20:46;;;;;;;12.23;3.22;;;28.80;97.90;;;;;;5033339;28;20410;-87
2022/01/11 08:23:13;;;;;;;13.80;3.60;;;29.00;97.30;;;;;;5061035;28;20752;-83
2022/01/11 08:25:40;;;;;;;13.88;3.30;;;28.90;96.90;;;;;;5078969;28;20377;-85
2022/01/11 08:28:07;;;;;;;15.30;3.75;;;28.80;96.50;;;;;;5061837;28;20388;-84
2022/01/11 08:30:34;;;;;;;15.20;3.50;;;28.60;96.30;;;;;;5037356;28;21004;-83
2022/01/11 08:33:04;;;;;;;11.82;3.65;;;28.40;96.70;;;;;;5069886;28;20385;-83
2022/01/11 08:35:33;;;;;;;15.93;3.70;;;28.10;96.90;;;;;;5087686;28;20471;-82
2022/01/11 08:38:00;;;;;;;13.07;3.47;;;27.80;97.50;;;;;;5076677;28;20403;-84
2022/01/11 08:40:28;;;;;;;14.43;3.75;;;27.50;98.00;;;;;;5083222;28;21359;-85
2022/01/11 08:42:55;;;;;;;15.48;3.25;;;27.30;98.60;;;;;;5087768;28;20449;-84
2022/01/11 08:45:22;;;;;;;12.35;3.40;;;27.10;99.50;;;;;;5087836;28;20384;-81
2022/01/11 08:47:49;;;;;;;12.82;3.28;;;26.90;99.90;;;;;;5088039;28;20448;-83
2022/01/11 08:50:16;;;;;;;13.38;3.55;;;26.60;99.90;;;;;;5087377;28;20408;-79
2022/01/11 08:52:45;;;;;;;14.88;3.80;;;26.50;99.90;;;;;;5087644;28;20856;-82
2022/01/11 08:55:13;;;;;;;13.35;3.50;;;26.30;99.90;;;;;;5088070;28;20453;-85
2022/01/11 08:57:40;;;;;;;15.40;3.83;;;26.10;99.90;;;;;;5088022;28;20399;-79
2022/01/11 09:00:16;;;;;;;13.50;3.70;;;26.00;99.90;;;;;;5086333;28;20479;-78
2022/01/11 09:02:47;;;;;;;13.40;3.47;;;25.80;99.90;;;;;;5086802;28;20388;-83
2022/01/11 09:05:15;;;;;;;17.23;3.72;;;25.70;99.90;;;;;;5082124;28;20375;-78
2022/01/11 09:07:42;;;;;;;12.83;3.50;;;25.50;99.90;;;;;;5087429;28;20400;-82
2022/01/11 09:10:11;;;;;;;13.95;3.90;;;25.40;99.90;;;;;;5087259;28;20387;-84
2022/01/11 09:12:39;;;;;;;17.07;3.60;;;25.30;99.90;;;;;;5087221;28;20376;-84
2022/01/11 09:15:09;;;;;;;16.83;3.80;;;25.20;99.90;;;;;;5087015;28;20392;-84
2022/01/11 09:17:37;;;;;;;19.60;4.00;;;25.20;99.90;;;;;;5086674;28;20783;-81
2022/01/11 09:20:07;;;;;;;18.85;3.80;;;25.10;99.90;;;;;;5087143;28;20388;-83
2022/01/11 09:22:34;;;;;;;16.47;4.00;;;25.00;99.90;;;;;;5086790;28;20432;-84
2022/01/11 09:25:02;;;;;;;17.05;3.97;;;24.90;99.90;;;;;;5087265;28;20557;-83
2022/01/11 09:27:29;;;;;;;16.40;3.65;;;24.80;99.90;;;;;;5087206;28;20399;-83
2022/01/11 09:29:56;;;;;;;17.45;3.97;;;24.80;99.90;;;;;;5085689;28;20387;-84
2022/01/11 09:32:25;;;;;;;20.83;4.15;;;24.70;99.90;;;;;;5086727;28;20373;-83
2022/01/11 09:34:52;;;;;;;20.07;4.00;;;24.60;99.90;;;;;;5089654;28;20395;-84
2022/01/11 09:37:20;;;;;;;18.73;4.30;;;24.50;99.90;;;;;;5086584;28;20852;-83
2022/01/11 09:39:48;;;;;;;21.10;4.20;;;24.50;99.90;;;;;;5086833;28;20465;-83
2022/01/11 09:42:15;;;;;;;15.05;3.75;;;24.50;99.90;;;;;;5097945;28;20470;-84
2022/01/11 09:44:42;;;;;;;20.60;4.15;;;24.40;99.90;;;;;;5097792;28;20408;-86
2022/01/11 09:47:14;;;;;;;19.60;4.50;;;24.40;99.90;;;;;;5086617;28;20380;-86
2022/01/11 09:49:43;;;;;;;18.20;4.20;;;24.30;99.90;;;;;;5087014;28;20373;-85
2022/01/11 09:52:11;;;;;;;22.48;4.47;;;24.30;99.90;;;;;;5084842;28;20396;-85
2022/01/11 09:54:43;;;;;;;21.15;3.95;;;24.20;99.90;;;;;;5067574;28;20473;-85
2022/01/11 09:57:10;;;;;;;20.47;3.93;;;24.10;99.90;;;;;;5079314;28;20390;-85
2022/01/11 09:59:39;;;;;;;15.93;4.30;;;24.10;99.90;;;;;;5082632;28;20383;-78
2022/01/11 10:02:06;;;;;;;22.03;4.43;;;24.00;99.90;;;;;;5073295;28;20424;-86
2022/01/11 10:04:35;;;;;;;21.40;4.22;;;24.00;99.90;;;;;;5086792;28;20573;-84
2022/01/11 10:07:08;;;;;;;19.48;4.45;;;23.90;99.90;;;;;;5086680;28;20444;-83
2022/01/11 10:09:47;;;;;;;18.88;3.95;;;23.90;99.90;;;;;;5086708;28;20384;-81
2022/01/11 10:12:15;;;;;;;18.48;4.75;;;23.80;99.90;;;;;;5085341;28;20388;-82
2022/01/11 10:14:56;;;;;;;20.90;4.38;;;23.80;99.90;;;;;;5073336;28;20382;-81
2022/01/11 10:17:29;;;;;;;20.33;4.32;;;23.80;99.90;;;;;;5075287;28;20396;-83
2022/01/11 10:20:21;;;;;;;20.65;4.30;;;23.70;99.90;;;;;;5081938;28;20902;-80
2022/01/11 10:22:54;;;;;;;24.23;4.30;;;23.70;99.90;;;;;;5077637;28;20399;-78
2022/01/11 10:25:21;;;;;;;18.15;4.40;;;23.70;99.90;;;;;;5075122;28;20441;-83
2022/01/11 10:28:14;;;;;;;21.75;4.20;;;23.60;99.90;;;;;;5079071;28;20490;-78
2022/01/11 10:30:41;;;;;;;20.65;4.38;;;23.60;99.90;;;;;;5083438;28;20384;-83
2022/01/11 10:33:10;;;;;;;20.70;4.28;;;23.60;99.90;;;;;;5082596;28;20783;-80
2022/01/11 10:35:45;;;;;;;21.23;4.22;;;23.60;99.90;;;;;;5086258;28;20389;-83
2022/01/11 10:38:23;;;;;;;19.90;4.20;;;23.50;99.90;;;;;;5080799;28;20404;-79
2022/01/11 10:40:51;;;;;;;23.98;4.38;;;23.50;99.90;;;;;;5084216;28;21104;-78
2022/01/11 10:43:22;;;;;;;19.97;4.10;;;23.50;99.90;;;;;;5072818;28;20487;-81
2022/01/11 10:45:55;;;;;;;19.10;4.10;;;23.40;99.90;;;;;;5081386;28;20797;-78
2022/01/11 10:48:27;;;;;;;21.75;4.55;;;23.40;99.90;;;;;;5078244;28;20401;-84
2022/01/11 10:50:59;;;;;;;21.42;4.15;;;23.40;99.90;;;;;;5080718;28;20421;-78
2022/01/11 10:53:39;;;;;;;20.40;4.38;;;23.30;99.90;;;;;;5077002;28;20499;-84
2022/01/11 10:56:08;;;;;;;22.17;4.40;;;23.30;99.90;;;;;;5087485;28;20475;-80
2022/01/11 10:58:36;;;;;;;26.20;4.80;;;23.30;99.90;;;;;;5081586;28;20489;-82
2022/01/11 11:01:06;;;;;;;26.60;4.97;;;23.20;99.90;;;;;;5078952;28;21234;-84
2022/01/11 11:03:35;;;;;;;20.30;4.85;;;23.30;99.90;;;;;;5110442;28;20373;-84
2022/01/11 11:06:10;;;;;;;23.33;4.78;;;23.30;99.90;;;;;;5093187;28;20714;-79
2022/01/11 11:08:40;;;;;;;18.00;4.53;;;23.20;99.90;;;;;;5089871;28;20397;-82
2022/01/11 11:11:10;;;;;;;22.27;4.85;;;23.20;99.90;;;;;;5089833;28;20360;-79
2022/01/11 11:13:41;;;;;;;23.25;4.97;;;23.20;99.90;;;;;;5089378;28;20913;-82
2022/01/11 11:16:12;;;;;;;22.88;4.63;;;23.20;99.90;;;;;;5089686;28;20375;-78
2022/01/11 11:18:43;;;;;;;21.80;4.75;;;23.20;99.90;;;;;;5069678;28;20373;-79
2022/01/11 11:21:19;;;;;;;22.92;4.50;;;23.20;99.90;;;;;;5069574;28;20402;-81
2022/01/11 11:23:48;;;;;;;23.20;4.65;;;23.10;99.90;;;;;;5079808;28;20713;-80
2022/01/11 11:26:16;;;;;;;17.00;4.45;;;23.10;99.90;;;;;;5109983;28;20371;-83
2022/01/11 11:28:44;;;;;;;19.80;4.40;;;23.10;99.90;;;;;;5109587;28;20446;-82
2022/01/11 11:31:11;;;;;;;22.35;5.05;;;23.10;99.90;;;;;;5109929;28;20385;-84
2022/01/11 11:33:39;;;;;;;21.80;4.70;;;23.10;99.90;;;;;;5108678;28;20454;-81
2022/01/11 11:36:11;;;;;;;23.70;4.38;;;23.10;99.90;;;;;;5098738;28;20380;-84
2022/01/11 11:38:51;;;;;;;22.40;4.60;;;23.00;99.90;;;;;;5081383;28;20505;-84
2022/01/11 11:41:18;;;;;;;23.15;4.53;;;22.90;99.90;;;;;;5088559;28;20954;-79
2022/01/11 11:44:24;;;;;;;21.88;4.38;;;22.90;99.90;;;;;;5089189;28;20892;-82
2022/01/11 11:46:52;;;;;;;18.15;4.10;;;22.90;99.90;;;;;;5070801;28;20385;-81
2022/01/11 11:49:42;;;;;;;18.48;4.22;;;22.80;99.90;;;;;;5080437;28;20405;-84
2022/01/11 11:52:27;;;;;;;24.40;4.53;;;22.80;99.90;;;;;;5071441;28;20595;-84
2022/01/11 11:55:25;;;;;;;20.30;4.28;;;22.80;99.90;;;;;;5069219;28;20387;-81
2022/01/11 11:57:55;;;;;;;20.93;4.20;;;22.80;99.90;;;;;;5054701;28;20388;-86
2022/01/11 12:00:33;;;;;;;21.03;4.50;;;22.80;99.90;;;;;;5087360;28;20383;-79
2022/01/11 12:03:27;;;;;;;23.75;4.50;;;22.80;99.90;;;;;;5084314;28;21020;-78
2022/01/11 12:05:55;;;;;;;21.98;4.25;;;22.80;99.90;;;;;;5088841;28;20756;-78
2022/01/11 12:08:43;;;;;;;25.25;4.65;;;22.80;99.90;;;;;;5088743;28;20388;-79
2022/01/11 12:11:15;;;;;;;24.80;4.60;;;22.80;99.90;;;;;;5088421;28;20428;-83
2022/01/11 12:13:51;;;;;;;25.88;5.25;;;22.80;99.90;;;;;;5088398;28;20404;-81
2022/01/11 12:16:27;;;;;;;24.88;5.07;;;22.70;99.90;;;;;;5087460;28;20390;-83
2022/01/11 12:18:56;;;;;;;27.75;5.68;;;22.60;99.90;;;;;;5088502;28;20816;-80
2022/01/11 12:21:25;;;;;;;33.10;6.82;;;22.50;99.90;;;;;;5078468;28;20907;-85
2022/01/11 12:23:53;;;;;;;37.72;9.20;;;22.40;99.90;;;;;;5087198;28;20380;-84
2022/01/11 12:26:25;;;;;;;39.20;10.55;;;22.30;99.90;;;;;;5088185;28;20884;-82
2022/01/11 12:32:13;;;;;;;29.65;9.13;;;22.30;99.90;;;;;;5088554;28;20369;-79
2022/01/11 12:34:47;;;;;;;31.08;8.48;;;22.20;99.90;;;;;;5088089;28;20538;-84
2022/01/11 12:37:36;;;;;;;60.07;21.60;;;22.10;99.90;;;;;;5087036;28;20740;-78
2022/01/11 12:40:26;;;;;;;55.13;20.27;;;22.20;99.90;;;;;;5087965;28;20389;-84
2022/01/11 12:43:35;;;;;;;56.45;21.92;;;22.20;99.90;;;;;;5087858;28;20377;-79
2022/01/11 12:46:08;;;;;;;35.00;10.00;;;22.30;99.90;;;;;;5088187;28;20368;-85
2022/01/11 12:48:45;;;;;;;34.08;9.02;;;22.30;99.90;;;;;;5087456;28;20404;-85
2022/01/11 12:51:31;;;;;;;28.55;6.43;;;22.30;99.90;;;;;;5087806;28;20392;-84